Time;durP1;ratioP1;P1;durP2;ratioP2;P2;SDS_P1;SDS_P2;PMS_P1;PMS_P2;Temp;Humidity;BMP_temperature;BMP_pressure;BME280_temperature;BME280_humidity;BME280_pressure;Samples;Min_cycle;Max_cycle;Signal;HPM_P1;HPM_P2
2024/04/06 00:01:11;;;;;;;5.45;3.10;;;;;;;;;;5059365;28;20044;-74
2024/04/06 00:03:36;;;;;;;4.28;2.75;;;;;;;;;;5059181;28;20054;-75
2024/04/06 00:06:02;;;;;;;3.58;2.25;;;;;;;;;;5058847;28;20064;-75
2024/04/06 00:08:28;;;;;;;3.22;2.17;;;;;;;;;;5058972;28;20052;-74
2024/04/06 00:10:54;;;;;;;3.47;2.03;;;;;;;;;;5059176;28;20056;-75
2024/04/06 00:13:19;;;;;;;3.83;2.45;;;;;;;;;;5068224;28;20059;-74
2024/04/06 00:15:45;;;;;;;2.92;2.08;;;;;;;;;;5071098;28;20457;-73
2024/04/06 00:18:10;;;;;;;4.55;2.40;;;;;;;;;;5071506;28;20059;-74
2024/04/06 00:20:37;;;;;;;4.32;2.40;;;;;;;;;;5071026;28;20056;-73
2024/04/06 00:23:03;;;;;;;5.55;1.98;;;;;;;;;;5064150;28;20078;-75
2024/04/06 00:25:29;;;;;;;4.10;1.80;;;;;;;;;;5059130;28;20056;-75
2024/04/06 00:27:54;;;;;;;3.00;2.00;;;;;;;;;;5058964;28;20095;-75
2024/04/06 00:30:20;;;;;;;3.60;2.28;;;;;;;;;;5075100;28;20060;-75
2024/04/06 00:32:46;;;;;;;3.97;2.00;;;;;;;;;;5058642;28;20059;-74
2024/04/06 00:35:11;;;;;;;3.58;2.28;;;;;;;;;;5058788;28;20051;-75
2024/04/06 00:37:37;;;;;;;6.75;2.75;;;;;;;;;;5058728;28;20048;-75
2024/04/06 00:40:03;;;;;;;4.72;2.38;;;;;;;;;;5050346;28;20044;-73
2024/04/06 00:42:29;;;;;;;6.20;2.08;;;;;;;;;;5097012;28;20064;-74
2024/04/06 00:44:55;;;;;;;2.47;2.10;;;;;;;;;;5065535;28;20055;-74
2024/04/06 00:47:20;;;;;;;5.22;1.92;;;;;;;;;;5058401;28;20091;-74
2024/04/06 00:49:46;;;;;;;3.17;2.15;;;;;;;;;;5058123;28;20425;-74
2024/04/06 00:52:11;;;;;;;3.58;2.25;;;;;;;;;;5058344;28;20479;-74
2024/04/06 00:54:37;;;;;;;7.82;2.67;;;;;;;;;;5058198;28;20052;-74
2024/04/06 00:57:06;;;;;;;6.72;3.25;;;;;;;;;;5074805;28;20058;-74
2024/04/06 00:59:35;;;;;;;10.23;4.80;;;;;;;;;;5058650;28;20052;-74
2024/04/06 01:02:01;;;;;;;12.23;4.82;;;;;;;;;;5057995;28;20578;-74
2024/04/06 01:04:27;;;;;;;8.57;3.90;;;;;;;;;;5058095;28;20048;-74
2024/04/06 01:06:54;;;;;;;5.50;2.47;;;;;;;;;;5074084;28;20131;-74
2024/04/06 01:09:20;;;;;;;3.97;2.40;;;;;;;;;;5057915;28;20056;-74
2024/04/06 01:11:45;;;;;;;4.57;2.25;;;;;;;;;;5057889;28;20064;-76
2024/04/06 01:14:11;;;;;;;4.03;2.00;;;;;;;;;;5056931;28;20506;-74
2024/04/06 01:16:37;;;;;;;5.43;2.42;;;;;;;;;;5074356;28;20055;-73
2024/04/06 01:19:02;;;;;;;2.30;1.92;;;;;;;;;;5074042;28;20536;-74
2024/04/06 01:21:28;;;;;;;4.25;2.35;;;;;;;;;;5074080;28;20056;-74
2024/04/06 01:23:54;;;;;;;2.75;2.30;;;;;;;;;;5057671;28;20060;-74
2024/04/06 01:26:20;;;;;;;3.15;2.30;;;;;;;;;;5073716;28;20060;-74
2024/04/06 01:28:46;;;;;;;2.80;2.05;;;;;;;;;;5040896;28;20055;-74
2024/04/06 01:31:11;;;;;;;4.28;2.47;;;;;;;;;;5074323;28;20051;-74
2024/04/06 01:33:38;;;;;;;5.65;2.35;;;;;;;;;;5074083;28;20051;-74
2024/04/06 01:36:04;;;;;;;4.47;2.40;;;;;;;;;;5048303;28;20051;-74
2024/04/06 01:38:29;;;;;;;3.17;2.33;;;;;;;;;;5057204;28;20055;-74
2024/04/06 01:40:55;;;;;;;1.92;1.70;;;;;;;;;;5073793;28;20048;-73
2024/04/06 01:43:20;;;;;;;2.72;2.20;;;;;;;;;;5057568;28;20139;-74
2024/04/06 01:45:46;;;;;;;3.05;2.53;;;;;;;;;;5073866;28;20502;-73
2024/04/06 01:48:12;;;;;;;3.58;2.10;;;;;;;;;;5073837;28;20105;-74
2024/04/06 01:50:37;;;;;;;4.05;2.30;;;;;;;;;;5073627;28;20081;-74
2024/04/06 01:53:03;;;;;;;3.95;2.30;;;;;;;;;;5057248;28;20044;-74
2024/04/06 01:55:29;;;;;;;4.53;2.00;;;;;;;;;;5073496;28;20051;-74
2024/04/06 01:57:54;;;;;;;4.63;2.15;;;;;;;;;;5073867;28;20054;-74
2024/04/06 02:00:20;;;;;;;3.80;1.95;;;;;;;;;;5073674;28;20533;-74
2024/04/06 02:02:45;;;;;;;8.88;2.63;;;;;;;;;;5073503;28;20056;-73
2024/04/06 02:05:11;;;;;;;4.32;2.55;;;;;;;;;;5073458;28;20063;-74
2024/04/06 02:07:37;;;;;;;3.75;2.35;;;;;;;;;;5073439;28;20055;-74
2024/04/06 02:10:02;;;;;;;4.80;2.13;;;;;;;;;;5073525;28;20066;-75
2024/04/06 02:12:28;;;;;;;3.95;2.45;;;;;;;;;;5073743;28;20056;-74
2024/04/06 02:14:53;;;;;;;6.63;2.20;;;;;;;;;;5073509;28;20425;-74
2024/04/06 02:17:19;;;;;;;2.80;2.30;;;;;;;;;;5073405;28;20101;-74
2024/04/06 02:19:45;;;;;;;4.68;2.35;;;;;;;;;;5073538;28;20044;-74
2024/04/06 02:22:10;;;;;;;6.13;1.88;;;;;;;;;;5056919;28;20514;-74
2024/04/06 02:27:45;;;;;;;4.18;2.33;;;;;;;;;;5073019;28;20051;-74
2024/04/06 02:30:10;;;;;;;6.72;2.95;;;;;;;;;;5057010;28;20576;-74
2024/04/06 02:32:36;;;;;;;5.57;2.67;;;;;;;;;;5056666;28;20079;-74
2024/04/06 02:35:01;;;;;;;5.65;2.30;;;;;;;;;;5056749;28;20064;-73
2024/04/06 02:37:27;;;;;;;4.03;3.10;;;;;;;;;;5056887;28;20052;-74
2024/04/06 02:39:52;;;;;;;5.28;2.60;;;;;;;;;;5056313;28;20048;-74
2024/04/06 02:42:18;;;;;;;3.58;2.47;;;;;;;;;;5056380;28;20048;-74
2024/04/06 02:44:43;;;;;;;4.57;2.53;;;;;;;;;;5056559;28;20051;-74
2024/04/06 02:47:09;;;;;;;5.93;2.70;;;;;;;;;;5061245;28;20101;-74
2024/04/06 02:49:34;;;;;;;3.40;2.80;;;;;;;;;;5056988;28;20051;-75
2024/04/06 02:52:00;;;;;;;3.67;2.42;;;;;;;;;;5056575;28;20052;-73
2024/04/06 02:54:26;;;;;;;6.10;2.33;;;;;;;;;;5056383;28;20079;-74
2024/04/06 02:56:51;;;;;;;2.92;2.63;;;;;;;;;;5072767;28;20049;-74
2024/04/06 02:59:17;;;;;;;4.28;2.33;;;;;;;;;;5073166;28;20122;-74
2024/04/06 03:01:42;;;;;;;3.67;2.47;;;;;;;;;;5056586;28;20059;-74
2024/04/06 03:04:08;;;;;;;4.63;2.40;;;;;;;;;;5056626;28;20048;-73
2024/04/06 03:06:33;;;;;;;3.60;1.95;;;;;;;;;;5056148;28;20094;-74
2024/04/06 03:08:59;;;;;;;2.67;2.03;;;;;;;;;;5056268;28;20060;-74
2024/04/06 03:11:25;;;;;;;4.65;2.60;;;;;;;;;;5058224;28;20052;-74
2024/04/06 03:13:50;;;;;;;3.65;1.80;;;;;;;;;;5060107;28;20052;-73
2024/04/06 03:16:16;;;;;;;3.10;2.25;;;;;;;;;;5076409;28;20068;-74
2024/04/06 03:18:41;;;;;;;4.80;1.73;;;;;;;;;;5076424;28;20139;-74
2024/04/06 03:21:08;;;;;;;5.10;1.83;;;;;;;;;;5060025;28;20082;-74
2024/04/06 03:23:33;;;;;;;2.65;2.00;;;;;;;;;;5043653;28;20052;-74
2024/04/06 03:25:59;;;;;;;3.88;2.00;;;;;;;;;;5075978;28;20460;-74
2024/04/06 03:28:25;;;;;;;2.42;1.83;;;;;;;;;;5076299;28;20055;-74
2024/04/06 03:30:50;;;;;;;2.80;1.80;;;;;;;;;;5076542;28;20146;-74
2024/04/06 03:33:16;;;;;;;1.83;1.65;;;;;;;;;;5059809;28;20110;-74
2024/04/06 03:35:41;;;;;;;3.75;1.60;;;;;;;;;;5076252;28;20505;-74
2024/04/06 03:38:07;;;;;;;4.70;1.98;;;;;;;;;;5076088;28;20044;-74
2024/04/06 03:40:32;;;;;;;3.35;2.05;;;;;;;;;;5076317;28;20052;-75
2024/04/06 03:42:58;;;;;;;2.40;1.77;;;;;;;;;;5096780;28;20075;-74
2024/04/06 03:45:25;;;;;;;2.17;1.67;;;;;;;;;;5080376;28;20394;-74
2024/04/06 03:47:50;;;;;;;2.30;1.52;;;;;;;;;;5056404;28;20512;-76
2024/04/06 03:50:16;;;;;;;3.80;2.13;;;;;;;;;;5075874;28;20059;-76
2024/04/06 03:52:42;;;;;;;4.47;1.42;;;;;;;;;;5076130;28;20123;-76
2024/04/06 03:55:07;;;;;;;2.30;1.40;;;;;;;;;;5076378;28;20063;-76
2024/04/06 03:57:33;;;;;;;4.22;1.58;;;;;;;;;;5059383;28;20395;-75
2024/04/06 03:59:59;;;;;;;3.47;1.70;;;;;;;;;;5075809;28;20494;-76
2024/04/06 04:02:25;;;;;;;2.33;1.48;;;;;;;;;;5076215;28;20051;-75
2024/04/06 04:04:50;;;;;;;3.55;1.42;;;;;;;;;;5075524;28;20081;-76
2024/04/06 04:07:16;;;;;;;2.33;1.67;;;;;;;;;;5075475;28;20094;-76
2024/04/06 04:09:42;;;;;;;2.35;1.42;;;;;;;;;;5075635;28;20101;-76
2024/04/06 04:12:07;;;;;;;3.38;1.67;;;;;;;;;;5075828;28;20052;-76
2024/04/06 04:14:33;;;;;;;3.78;1.65;;;;;;;;;;5059222;28;20525;-76
2024/04/06 04:16:58;;;;;;;2.13;1.88;;;;;;;;;;5068567;28;20080;-76
2024/04/06 04:19:24;;;;;;;1.98;1.52;;;;;;;;;;5075714;28;20054;-76
2024/04/06 04:21:51;;;;;;;3.33;1.60;;;;;;;;;;5058345;28;20087;-76
2024/04/06 04:24:18;;;;;;;3.13;1.50;;;;;;;;;;5058544;28;20055;-76
2024/04/06 04:26:44;;;;;;;2.67;1.50;;;;;;;;;;5069871;28;20060;-76
2024/04/06 04:29:09;;;;;;;2.25;1.40;;;;;;;;;;5058902;28;20052;-75
2024/04/06 04:31:35;;;;;;;7.07;1.60;;;;;;;;;;5075363;28;20081;-76
2024/04/06 04:34:00;;;;;;;2.00;1.48;;;;;;;;;;5058332;28;20056;-76
2024/04/06 04:36:26;;;;;;;2.88;1.50;;;;;;;;;;5058214;28;20048;-76
2024/04/06 04:38:51;;;;;;;2.00;1.30;;;;;;;;;;5058258;28;20058;-75
2024/04/06 04:41:17;;;;;;;2.65;1.45;;;;;;;;;;5075018;28;20071;-76
2024/04/06 04:43:43;;;;;;;2.78;1.25;;;;;;;;;;5058279;28;20056;-76
2024/04/06 04:46:09;;;;;;;2.10;1.60;;;;;;;;;;5058009;28;20056;-78
2024/04/06 04:48:53;;;;;;;2.22;1.67;;;;;;;;;;5058421;28;20060;-75
2024/04/06 04:51:22;;;;;;;1.70;1.50;;;;;;;;;;5058314;28;20059;-76
2024/04/06 04:53:49;;;;;;;4.60;1.70;;;;;;;;;;5041496;28;20048;-76
2024/04/06 04:56:14;;;;;;;2.17;1.33;;;;;;;;;;5058160;28;20429;-76
2024/04/06 04:58:40;;;;;;;1.83;1.30;;;;;;;;;;5058196;28;20056;-75
2024/04/06 05:01:06;;;;;;;5.80;2.15;;;;;;;;;;5058135;28;20071;-76
2024/04/06 05:03:31;;;;;;;2.45;1.65;;;;;;;;;;5058229;28;20437;-76
2024/04/06 05:05:57;;;;;;;3.15;1.77;;;;;;;;;;5057751;28;20095;-76
2024/04/06 05:08:23;;;;;;;4.03;1.80;;;;;;;;;;5074646;28;20101;-76
2024/04/06 05:10:50;;;;;;;1.63;1.45;;;;;;;;;;5058250;28;20417;-76
2024/04/06 05:13:15;;;;;;;2.08;1.33;;;;;;;;;;5060307;28;20114;-76
2024/04/06 05:15:41;;;;;;;1.45;1.30;;;;;;;;;;5059554;28;20055;-76
2024/04/06 05:18:07;;;;;;;3.05;1.60;;;;;;;;;;5057783;28;20502;-76
2024/04/06 05:20:32;;;;;;;1.90;1.50;;;;;;;;;;5057481;28;20048;-75
2024/04/06 05:22:58;;;;;;;2.35;1.42;;;;;;;;;;5074308;28;20059;-76
2024/04/06 05:25:23;;;;;;;3.20;1.88;;;;;;;;;;5057449;28;20056;-76
2024/04/06 05:27:49;;;;;;;12.93;2.88;;;;;;;;;;5057466;28;20052;-75
2024/04/06 05:30:14;;;;;;;4.50;1.92;;;;;;;;;;5057383;28;20052;-75
2024/04/06 05:32:40;;;;;;;2.17;1.48;;;;;;;;;;5057586;28;20131;-76
2024/04/06 05:35:06;;;;;;;2.70;1.75;;;;;;;;;;5073445;28;20524;-76
2024/04/06 05:37:31;;;;;;;3.80;1.70;;;;;;;;;;5057488;28;20048;-76
2024/04/06 05:39:57;;;;;;;2.22;1.42;;;;;;;;;;5057340;28;20464;-76
2024/04/06 05:42:22;;;;;;;3.15;1.55;;;;;;;;;;5057218;28;20048;-75
2024/04/06 05:44:48;;;;;;;2.90;1.40;;;;;;;;;;5057357;28;20055;-74
2024/04/06 05:47:14;;;;;;;1.88;1.60;;;;;;;;;;5073722;28;20070;-74
2024/04/06 05:49:40;;;;;;;3.20;1.70;;;;;;;;;;5056849;28;20059;-74
2024/04/06 05:52:05;;;;;;;3.67;1.90;;;;;;;;;;5073776;28;20113;-74
2024/04/06 05:54:32;;;;;;;1.90;1.50;;;;;;;;;;5057235;28;20048;-74
2024/04/06 05:56:58;;;;;;;2.95;1.40;;;;;;;;;;5057065;28;20607;-74
2024/04/06 05:59:23;;;;;;;2.47;1.67;;;;;;;;;;5057298;28;20505;-74
2024/04/06 06:01:49;;;;;;;3.65;1.40;;;;;;;;;;5057421;28;20048;-73
2024/04/06 06:04:14;;;;;;;2.95;1.35;;;;;;;;;;5057231;28;20418;-76
2024/04/06 06:06:40;;;;;;;2.55;1.50;;;;;;;;;;5073672;28;20070;-76
2024/04/06 06:09:06;;;;;;;2.90;1.27;;;;;;;;;;5057329;28;20052;-76
2024/04/06 06:11:31;;;;;;;3.78;1.17;;;;;;;;;;5057547;28;20411;-76
2024/04/06 06:13:57;;;;;;;2.42;1.40;;;;;;;;;;5056851;28;20063;-76
2024/04/06 06:16:22;;;;;;;1.90;1.70;;;;;;;;;;5056931;28;20058;-77
2024/04/06 06:18:48;;;;;;;2.75;1.45;;;;;;;;;;5056664;28;20402;-77
2024/04/06 06:21:13;;;;;;;3.95;1.60;;;;;;;;;;5056986;28;20075;-77
2024/04/06 06:23:39;;;;;;;4.72;1.85;;;;;;;;;;5056772;28;20438;-77
2024/04/06 06:26:04;;;;;;;1.90;1.65;;;;;;;;;;5056746;28;20058;-76
2024/04/06 06:28:30;;;;;;;3.88;1.83;;;;;;;;;;5056771;28;20055;-76
2024/04/06 06:30:56;;;;;;;3.15;1.58;;;;;;;;;;5073460;28;20052;-74
2024/04/06 06:33:21;;;;;;;2.75;1.65;;;;;;;;;;5056728;28;20059;-73
2024/04/06 06:35:53;;;;;;;2.65;1.50;;;;;;;;;;5056369;28;20044;-74
2024/04/06 06:38:19;;;;;;;2.15;1.55;;;;;;;;;;5056795;28;20055;-74
2024/04/06 06:40:45;;;;;;;3.20;1.63;;;;;;;;;;5072158;28;20095;-72
2024/04/06 06:43:11;;;;;;;2.70;1.70;;;;;;;;;;5098216;28;20069;-72
2024/04/06 06:45:37;;;;;;;2.83;1.80;;;;;;;;;;5093307;28;20048;-74
2024/04/06 06:48:03;;;;;;;5.03;2.28;;;;;;;;;;5043997;28;20052;-74
2024/04/06 06:50:28;;;;;;;4.18;1.90;;;;;;;;;;5076937;28;20044;-74
2024/04/06 06:52:54;;;;;;;8.05;1.95;;;;;;;;;;5060264;28;20052;-75
2024/04/06 06:55:20;;;;;;;2.60;1.48;;;;;;;;;;5060584;28;20040;-75
2024/04/06 06:57:47;;;;;;;2.83;1.45;;;;;;;;;;5060797;28;20513;-76
2024/04/06 07:00:14;;;;;;;3.35;1.40;;;;;;;;;;5077616;28;20132;-76
2024/04/06 07:02:39;;;;;;;4.22;1.75;;;;;;;;;;5077160;28;20116;-75
2024/04/06 07:05:05;;;;;;;2.53;1.75;;;;;;;;;;5060522;28;20056;-75
2024/04/06 07:07:30;;;;;;;7.15;1.70;;;;;;;;;;5094238;28;20056;-76
2024/04/06 07:09:58;;;;;;;3.92;1.67;;;;;;;;;;5077685;28;20044;-75
2024/04/06 07:12:23;;;;;;;3.42;1.45;;;;;;;;;;5077632;28;20048;-75
2024/04/06 07:14:49;;;;;;;2.35;1.13;;;;;;;;;;5060844;28;20102;-75
2024/04/06 07:17:16;;;;;;;2.38;1.30;;;;;;;;;;5061414;28;20048;-75
2024/04/06 07:19:41;;;;;;;2.22;1.08;;;;;;;;;;5044335;28;20055;-75
2024/04/06 07:22:07;;;;;;;1.92;1.30;;;;;;;;;;5077377;28;20127;-76
2024/04/06 07:24:33;;;;;;;5.20;1.40;;;;;;;;;;5061616;28;20127;-74
2024/04/06 07:26:58;;;;;;;2.55;1.30;;;;;;;;;;5073808;28;20056;-74
2024/04/06 07:29:24;;;;;;;1.67;1.45;;;;;;;;;;5074514;28;20056;-75
2024/04/06 07:31:49;;;;;;;2.55;1.38;;;;;;;;;;5072419;28;20108;-74
2024/04/06 07:34:15;;;;;;;2.53;1.20;;;;;;;;;;5072327;28;20044;-75
2024/04/06 07:36:40;;;;;;;2.13;1.35;;;;;;;;;;5060949;28;20093;-75
2024/04/06 07:39:06;;;;;;;3.35;1.27;;;;;;;;;;5060457;28;20067;-75
2024/04/06 07:41:31;;;;;;;2.55;1.42;;;;;;;;;;5077193;28;20052;-76
2024/04/06 07:43:57;;;;;;;3.67;1.15;;;;;;;;;;5062115;28;20055;-76
2024/04/06 07:46:22;;;;;;;5.28;1.30;;;;;;;;;;5061175;28;20074;-75
2024/04/06 07:48:48;;;;;;;2.20;1.20;;;;;;;;;;5059936;28;20063;-76
2024/04/06 07:51:14;;;;;;;2.20;1.00;;;;;;;;;;5076706;28;20060;-76
2024/04/06 07:53:39;;;;;;;1.48;1.00;;;;;;;;;;5043474;28;20541;-75
2024/04/06 07:56:05;;;;;;;1.58;1.20;;;;;;;;;;5059014;28;20091;-75
2024/04/06 07:58:30;;;;;;;11.18;1.40;;;;;;;;;;5059697;28;20052;-75
2024/04/06 08:00:56;;;;;;;1.30;1.05;;;;;;;;;;5059523;28;20426;-75
2024/04/06 08:03:22;;;;;;;1.27;1.00;;;;;;;;;;5059850;28;20109;-76
2024/04/06 08:05:51;;;;;;;2.97;1.25;;;;;;;;;;5059542;28;20051;-75
2024/04/06 08:08:17;;;;;;;2.92;2.05;;;;;;;;;;5076701;28;20048;-76
2024/04/06 08:10:42;;;;;;;2.72;1.88;;;;;;;;;;5060430;28;20430;-75
2024/04/06 08:13:08;;;;;;;7.15;3.55;;;;;;;;;;5059827;28;20094;-76
2024/04/06 08:15:34;;;;;;;10.50;5.57;;;;;;;;;;5059106;28;20059;-75
2024/04/06 08:17:59;;;;;;;7.90;3.53;;;;;;;;;;5059205;28;20493;-76
2024/04/06 08:20:25;;;;;;;10.52;5.40;;;;;;;;;;5059448;28;20109;-75
2024/04/06 08:22:50;;;;;;;5.93;3.97;;;;;;;;;;5059457;28;20465;-76
2024/04/06 08:25:16;;;;;;;4.10;2.17;;;;;;;;;;5059389;28;20048;-76
2024/04/06 08:27:41;;;;;;;4.20;1.90;;;;;;;;;;5042552;28;20048;-76
2024/04/06 08:30:08;;;;;;;4.43;2.67;;;;;;;;;;5059609;28;20052;-75
2024/04/06 08:32:36;;;;;;;7.70;4.28;;;;;;;;;;5059390;28;20045;-75
2024/04/06 08:35:01;;;;;;;20.70;4.00;;;;;;;;;;5076006;28;20460;-76
2024/04/06 08:37:27;;;;;;;7.47;3.17;;;;;;;;;;5075834;28;20066;-76
2024/04/06 08:39:53;;;;;;;5.28;1.67;;;;;;;;;;5058890;28;20513;-75
2024/04/06 08:42:21;;;;;;;3.72;2.17;;;;;;;;;;5075838;28;20055;-76
2024/04/06 08:44:47;;;;;;;4.32;2.05;;;;;;;;;;5058622;28;20060;-76
2024/04/06 08:47:16;;;;;;;3.17;1.55;;;;;;;;;;5058783;28;20399;-76
2024/04/06 08:49:42;;;;;;;4.45;2.10;;;;;;;;;;5042096;28;20048;-76
2024/04/06 08:52:08;;;;;;;4.20;2.13;;;;;;;;;;5058764;28;20055;-76
2024/04/06 08:54:34;;;;;;;3.47;1.40;;;;;;;;;;5074838;28;20142;-75
2024/04/06 08:56:59;;;;;;;4.45;2.17;;;;;;;;;;5058300;28;20105;-75
2024/04/06 08:59:25;;;;;;;2.97;2.22;;;;;;;;;;5058183;28;20155;-76
2024/04/06 09:01:51;;;;;;;4.43;1.90;;;;;;;;;;5041981;28;20063;-75
2024/04/06 09:04:16;;;;;;;3.03;1.60;;;;;;;;;;5054846;28;20071;-75
2024/04/06 09:06:45;;;;;;;3.42;1.40;;;;;;;;;;5054566;28;20106;-75
2024/04/06 09:09:11;;;;;;;3.72;2.00;;;;;;;;;;5057437;28;20052;-75
2024/04/06 09:11:40;;;;;;;2.38;1.35;;;;;;;;;;5075177;28;20093;-75
2024/04/06 09:14:05;;;;;;;2.20;1.20;;;;;;;;;;5074743;28;20468;-76
2024/04/06 09:16:31;;;;;;;3.47;1.40;;;;;;;;;;5075085;28;20181;-76
2024/04/06 09:18:57;;;;;;;1.75;1.40;;;;;;;;;;5058059;28;20048;-76
2024/04/06 09:21:22;;;;;;;2.80;1.70;;;;;;;;;;5058689;28;20084;-75
2024/04/06 09:23:57;;;;;;;2.17;1.10;;;;;;;;;;5058451;28;20055;-75
2024/04/06 09:26:23;;;;;;;2.30;1.58;;;;;;;;;;5075244;28;20052;-75
2024/04/06 09:28:52;;;;;;;2.17;1.20;;;;;;;;;;5058586;28;20055;-75
2024/04/06 09:31:22;;;;;;;2.17;0.90;;;;;;;;;;5041881;28;20052;-75
2024/04/06 09:33:55;;;;;;;2.13;1.10;;;;;;;;;;5057930;28;20048;-74
2024/04/06 09:36:20;;;;;;;5.07;1.30;;;;;;;;;;5058222;28;20048;-75
2024/04/06 09:38:50;;;;;;;2.05;1.52;;;;;;;;;;5058786;28;20066;-76
2024/04/06 09:41:16;;;;;;;2.40;1.25;;;;;;;;;;5075585;28;20044;-75
2024/04/06 09:43:45;;;;;;;2.30;1.48;;;;;;;;;;5066244;28;20055;-74
2024/04/06 09:46:11;;;;;;;4.63;1.33;;;;;;;;;;5077484;28;20052;-76
2024/04/06 09:48:37;;;;;;;3.15;1.02;;;;;;;;;;5074574;28;20052;-75
2024/04/06 09:51:03;;;;;;;2.53;1.40;;;;;;;;;;5058104;28;20419;-76
2024/04/06 09:53:29;;;;;;;6.43;1.38;;;;;;;;;;5057482;28;20055;-75
2024/04/06 09:55:54;;;;;;;2.33;1.00;;;;;;;;;;5057753;28;20513;-75
2024/04/06 09:58:28;;;;;;;2.15;1.33;;;;;;;;;;5058301;28;20101;-74
2024/04/06 10:00:56;;;;;;;6.70;1.50;;;;;;;;;;5075411;28;20048;-75
2024/04/06 10:03:22;;;;;;;3.55;1.15;;;;;;;;;;5057955;28;20056;-75
2024/04/06 10:05:51;;;;;;;3.28;1.58;;;;;;;;;;5074523;28;20100;-75
2024/04/06 10:08:17;;;;;;;2.35;1.33;;;;;;;;;;5057850;28;20059;-75
2024/04/06 10:10:47;;;;;;;1.70;1.13;;;;;;;;;;5057906;28;20487;-74
2024/04/06 10:13:19;;;;;;;2.25;0.80;;;;;;;;;;5057979;28;20566;-75
2024/04/06 10:15:45;;;;;;;2.35;0.90;;;;;;;;;;5073847;28;20048;-74
2024/04/06 10:18:10;;;;;;;1.48;1.00;;;;;;;;;;5057435;28;20056;-75
2024/04/06 10:20:36;;;;;;;4.70;1.30;;;;;;;;;;5060050;28;20055;-74
2024/04/06 10:23:02;;;;;;;3.72;1.15;;;;;;;;;;5062335;28;20505;-75
2024/04/06 10:25:31;;;;;;;2.20;1.23;;;;;;;;;;5061833;28;20505;-75
2024/04/06 10:28:03;;;;;;;1.25;0.73;;;;;;;;;;5077404;28;20110;-75
2024/04/06 10:30:28;;;;;;;3.03;0.97;;;;;;;;;;5061103;28;20059;-75
2024/04/06 10:32:54;;;;;;;1.38;0.73;;;;;;;;;;5061354;28;20048;-75
2024/04/06 10:35:19;;;;;;;3.83;1.00;;;;;;;;;;5061538;28;20052;-75
2024/04/06 10:37:48;;;;;;;2.63;1.10;;;;;;;;;;5061260;28;20429;-75
2024/04/06 10:40:14;;;;;;;2.38;0.90;;;;;;;;;;5060934;28;20044;-75
2024/04/06 10:42:40;;;;;;;1.20;0.90;;;;;;;;;;5078565;28;20117;-75
2024/04/06 10:45:08;;;;;;;3.35;0.73;;;;;;;;;;5078476;28;20110;-75
2024/04/06 10:47:34;;;;;;;1.20;0.90;;;;;;;;;;5061668;28;20048;-75
2024/04/06 10:49:59;;;;;;;2.35;0.80;;;;;;;;;;5078351;28;20060;-75
2024/04/06 10:52:25;;;;;;;1.08;0.70;;;;;;;;;;5061694;28;20079;-75
2024/04/06 10:54:51;;;;;;;5.05;1.10;;;;;;;;;;5077804;28;20048;-75
2024/04/06 10:57:17;;;;;;;4.95;1.10;;;;;;;;;;5061350;28;20059;-75
2024/04/06 10:59:42;;;;;;;1.10;0.70;;;;;;;;;;5061298;28;20529;-76
2024/04/06 11:02:08;;;;;;;1.27;0.70;;;;;;;;;;5060257;28;20068;-75
2024/04/06 11:04:40;;;;;;;2.55;1.10;;;;;;;;;;5043499;28;20122;-75
2024/04/06 11:07:06;;;;;;;0.82;0.40;;;;;;;;;;5060807;28;20532;-75
2024/04/06 11:09:32;;;;;;;0.82;0.73;;;;;;;;;;5061691;28;20063;-75
2024/04/06 11:11:57;;;;;;;0.98;0.60;;;;;;;;;;5077655;28;20052;-75
2024/04/06 11:14:26;;;;;;;2.03;0.65;;;;;;;;;;5061074;28;20101;-75
2024/04/06 11:16:52;;;;;;;1.67;0.70;;;;;;;;;;5060778;28;20059;-75
2024/04/06 11:19:18;;;;;;;2.35;0.90;;;;;;;;;;5078041;28;20059;-74
2024/04/06 11:21:43;;;;;;;2.97;0.80;;;;;;;;;;5060993;28;20044;-75
2024/04/06 11:24:09;;;;;;;3.00;0.52;;;;;;;;;;5061429;28;20058;-75
2024/04/06 11:26:36;;;;;;;3.30;1.02;;;;;;;;;;5044435;28;20566;-76
2024/04/06 11:29:02;;;;;;;1.30;0.60;;;;;;;;;;5060547;28;20059;-76
2024/04/06 11:31:28;;;;;;;2.20;0.80;;;;;;;;;;5060073;28;20052;-75
2024/04/06 11:33:56;;;;;;;1.08;0.70;;;;;;;;;;5060339;28;20052;-75
2024/04/06 11:36:22;;;;;;;4.93;0.90;;;;;;;;;;5059952;28;20056;-76
2024/04/06 11:38:47;;;;;;;2.58;0.70;;;;;;;;;;5060063;28;20052;-75
2024/04/06 11:41:13;;;;;;;1.67;0.68;;;;;;;;;;5060128;28;20055;-75
2024/04/06 11:43:38;;;;;;;1.52;0.80;;;;;;;;;;5060135;28;20056;-75
2024/04/06 11:46:04;;;;;;;1.05;0.80;;;;;;;;;;5059958;28;20134;-76
2024/04/06 11:48:30;;;;;;;0.57;0.50;;;;;;;;;;5060644;28;20106;-75
2024/04/06 11:50:55;;;;;;;0.63;0.60;;;;;;;;;;5060777;28;20055;-76
2024/04/06 11:53:21;;;;;;;1.13;0.73;;;;;;;;;;5060643;28;20056;-75
2024/04/06 11:55:46;;;;;;;3.20;0.77;;;;;;;;;;5060028;28;20494;-75
2024/04/06 11:58:12;;;;;;;0.95;0.55;;;;;;;;;;5060168;28;20050;-76
2024/04/06 12:00:38;;;;;;;1.55;0.50;;;;;;;;;;5060058;28;20447;-75
2024/04/06 12:03:03;;;;;;;1.58;0.60;;;;;;;;;;5059652;28;20462;-75
2024/04/06 12:05:29;;;;;;;2.65;1.50;;;;;;;;;;5059266;28;20101;-75
2024/04/06 12:07:54;;;;;;;1.90;1.17;;;;;;;;;;5059809;28;20047;-76
2024/04/06 12:10:20;;;;;;;3.55;2.10;;;;;;;;;;5056355;28;20052;-76
2024/04/06 12:12:45;;;;;;;1.92;1.00;;;;;;;;;;5056182;28;20079;-77
2024/04/06 12:15:12;;;;;;;0.82;0.60;;;;;;;;;;5059025;28;20063;-75
2024/04/06 12:17:37;;;;;;;3.42;1.80;;;;;;;;;;5076408;28;20059;-75
2024/04/06 12:20:03;;;;;;;2.95;1.15;;;;;;;;;;5059195;28;20060;-75
2024/04/06 12:22:30;;;;;;;2.55;1.08;;;;;;;;;;5076052;28;20040;-75
2024/04/06 12:24:55;;;;;;;1.92;0.65;;;;;;;;;;5042781;28;20056;-76
2024/04/06 12:27:22;;;;;;;3.50;2.30;;;;;;;;;;5059388;28;20330;-75
2024/04/06 12:29:47;;;;;;;2.88;1.77;;;;;;;;;;5059211;28;20055;-75
2024/04/06 12:32:13;;;;;;;9.27;4.45;;;;;;;;;;5059239;28;20048;-75
2024/04/06 12:34:39;;;;;;;8.48;4.15;;;;;;;;;;5058899;28;20052;-76
2024/04/06 12:37:09;;;;;;;7.50;3.92;;;;;;;;;;5075522;28;20101;-76
2024/04/06 12:39:35;;;;;;;9.68;6.13;;;;;;;;;;5059354;28;20098;-76
2024/04/06 12:42:01;;;;;;;3.80;1.98;;;;;;;;;;5075243;28;20048;-74
2024/04/06 12:44:26;;;;;;;2.78;0.73;;;;;;;;;;5070063;28;20060;-75
2024/04/06 12:46:52;;;;;;;1.42;0.60;;;;;;;;;;5066350;28;20064;-75
2024/04/06 12:49:18;;;;;;;1.58;0.73;;;;;;;;;;5058504;28;20501;-75
2024/04/06 12:51:43;;;;;;;1.88;0.60;;;;;;;;;;5058773;28;20048;-76
2024/04/06 12:54:09;;;;;;;1.50;0.88;;;;;;;;;;5058301;28;20639;-76
2024/04/06 12:57:36;;;;;;;2.55;0.50;;;;;;;;;;5058563;28;20055;-75
2024/04/06 12:59:20;;;;;;;1.00;0.70;;;;;;;;;;5075306;28;20059;-76
2024/04/06 13:01:46;;;;;;;0.80;0.60;;;;;;;;;;5058558;28;20127;-75
2024/04/06 13:04:11;;;;;;;2.13;0.70;;;;;;;;;;5058427;28;20056;-76
2024/04/06 13:06:37;;;;;;;0.82;0.55;;;;;;;;;;5058115;28;20090;-76
2024/04/06 13:09:03;;;;;;;0.93;0.60;;;;;;;;;;5058123;28;20060;-76
2024/04/06 13:11:28;;;;;;;0.50;0.40;;;;;;;;;;5058309;28;20048;-76
2024/04/06 13:13:54;;;;;;;1.80;0.95;;;;;;;;;;5074931;28;20502;-75
2024/04/06 13:16:19;;;;;;;1.92;0.60;;;;;;;;;;5058366;28;20055;-76
2024/04/06 13:18:46;;;;;;;1.58;0.50;;;;;;;;;;5058243;28;20555;-76
2024/04/06 13:21:11;;;;;;;2.15;0.77;;;;;;;;;;5058005;28;20056;-75
2024/04/06 13:23:37;;;;;;;3.28;0.70;;;;;;;;;;5058595;28;20199;-76
2024/04/06 13:26:03;;;;;;;0.98;0.80;;;;;;;;;;5057808;28;20068;-76
2024/04/06 13:28:28;;;;;;;2.53;1.02;;;;;;;;;;5058041;28;20047;-76
2024/04/06 13:30:54;;;;;;;2.30;0.80;;;;;;;;;;5058343;28;20051;-76
2024/04/06 13:33:20;;;;;;;1.02;0.80;;;;;;;;;;5057805;28;20048;-75
2024/04/06 13:35:47;;;;;;;2.75;0.80;;;;;;;;;;5058865;28;20048;-76
2024/04/06 13:38:13;;;;;;;1.63;0.73;;;;;;;;;;5057332;28;20055;-76
2024/04/06 13:40:39;;;;;;;1.10;0.70;;;;;;;;;;5057247;28;20055;-75
2024/04/06 13:43:04;;;;;;;0.93;0.57;;;;;;;;;;5057431;28;20051;-75
2024/04/06 13:45:30;;;;;;;3.47;1.02;;;;;;;;;;5054169;28;20083;-76
2024/04/06 13:47:55;;;;;;;4.65;0.70;;;;;;;;;;5070852;28;20052;-76
2024/04/06 13:50:21;;;;;;;0.77;0.60;;;;;;;;;;5058596;28;20465;-76
2024/04/06 13:52:46;;;;;;;1.52;0.63;;;;;;;;;;5058090;28;20493;-76
2024/04/06 13:55:12;;;;;;;1.05;0.60;;;;;;;;;;5073382;28;20055;-76
2024/04/06 13:57:38;;;;;;;0.90;0.82;;;;;;;;;;5057521;28;20060;-76
2024/04/06 14:00:08;;;;;;;1.17;0.55;;;;;;;;;;5057995;28;20063;-76
2024/04/06 14:02:33;;;;;;;2.92;0.90;;;;;;;;;;5075239;28;20048;-76
2024/04/06 14:04:59;;;;;;;0.93;0.50;;;;;;;;;;5058399;28;20422;-75
2024/04/06 14:07:25;;;;;;;0.90;0.80;;;;;;;;;;5074357;28;20550;-75
2024/04/06 14:09:50;;;;;;;6.57;0.82;;;;;;;;;;5058116;28;20044;-75
2024/04/06 14:12:21;;;;;;;1.58;0.68;;;;;;;;;;5058613;28;20189;-76
2024/04/06 14:14:46;;;;;;;1.23;0.50;;;;;;;;;;5057758;28;20048;-76
2024/04/06 14:17:12;;;;;;;2.45;0.60;;;;;;;;;;5058120;28;20055;-75
2024/04/06 14:19:39;;;;;;;1.63;0.55;;;;;;;;;;5074945;28;20044;-76
2024/04/06 14:22:05;;;;;;;0.40;0.40;;;;;;;;;;5057051;28;20421;-75
2024/04/06 14:24:31;;;;;;;2.05;0.82;;;;;;;;;;5057317;28;20514;-76
2024/04/06 14:26:57;;;;;;;1.60;0.70;;;;;;;;;;5057157;28;20086;-76
2024/04/06 14:29:23;;;;;;;1.23;0.70;;;;;;;;;;5073844;28;20048;-75
2024/04/06 14:31:48;;;;;;;1.92;0.60;;;;;;;;;;5057360;28;20078;-76
2024/04/06 14:34:14;;;;;;;0.93;0.60;;;;;;;;;;5073983;28;20568;-76
2024/04/06 14:36:39;;;;;;;0.82;0.70;;;;;;;;;;5057397;28;20052;-76
2024/04/06 14:39:06;;;;;;;0.85;0.75;;;;;;;;;;5056840;28;20102;-76